createdAt,value
2018-04-11T00:00:48.267Z,16.00
2018-04-11T00:01:48.290Z,15.94
2018-04-11T00:02:48.252Z,15.99
2018-04-11T00:03:48.216Z,15.92
2018-04-11T00:04:48.200Z,15.90
2018-04-11T00:05:48.184Z,15.85
2018-04-11T00:06:48.168Z,15.81
2018-04-11T00:07:48.148Z,15.80
2018-04-11T00:08:48.132Z,15.78
2018-04-11T00:09:48.115Z,15.80
2018-04-11T00:10:48.100Z,15.83
2018-04-11T00:11:48.082Z,15.90
2018-04-11T00:12:48.065Z,15.75
2018-04-11T00:13:48.049Z,15.78
2018-04-11T00:14:48.033Z,15.76
2018-04-11T00:15:48.015Z,15.75
2018-04-11T00:16:47.998Z,15.66
2018-04-11T00:17:47.983Z,15.70
2018-04-11T00:18:47.967Z,15.62
2018-04-11T00:19:47.949Z,15.54
2018-04-11T00:20:47.933Z,15.55
2018-04-11T00:21:47.915Z,15.50
2018-04-11T00:22:47.898Z,15.55
2018-04-11T00:23:47.882Z,15.48
2018-04-11T00:24:47.894Z,15.54
2018-04-11T00:25:47.857Z,15.55
2018-04-11T00:26:47.831Z,15.51
2018-04-11T00:27:47.817Z,15.63
2018-04-11T00:28:47.796Z,15.59
2018-04-11T00:29:47.778Z,15.57
2018-04-11T00:30:47.760Z,15.55
2018-04-11T00:31:47.743Z,15.52
2018-04-11T00:32:47.726Z,15.60
2018-04-11T00:33:47.704Z,15.47
2018-04-11T00:34:47.688Z,15.45
2018-04-11T00:35:47.669Z,15.50
2018-04-11T00:36:47.655Z,15.43
2018-04-11T00:37:47.636Z,15.36
2018-04-11T00:38:47.616Z,15.43
2018-04-11T00:39:47.603Z,15.29
2018-04-11T00:40:47.583Z,15.35
2018-04-11T00:41:47.567Z,15.27
2018-04-11T00:42:47.549Z,15.14
2018-04-11T00:43:47.532Z,15.15
2018-04-11T00:44:47.516Z,15.15
2018-04-11T00:45:47.497Z,15.04
2018-04-11T00:46:47.482Z,15.04
2018-04-11T00:47:47.466Z,15.04
2018-04-11T00:48:47.449Z,15.05
2018-04-11T00:49:47.434Z,14.94
2018-04-11T00:50:47.412Z,14.93
2018-04-11T00:51:47.397Z,14.94
2018-04-11T00:52:47.379Z,14.96
2018-04-11T00:53:47.363Z,14.96
2018-04-11T00:54:47.341Z,14.92
2018-04-11T00:55:47.324Z,14.78
2018-04-11T00:56:47.307Z,14.77
2018-04-11T00:57:47.294Z,14.78
2018-04-11T00:58:47.275Z,14.71
2018-04-11T00:59:47.253Z,14.81
2018-04-11T01:00:47.240Z,14.71
2018-04-11T01:01:47.220Z,14.63
2018-04-11T01:02:47.204Z,14.73
2018-04-11T01:03:47.192Z,14.66
2018-04-11T01:04:47.165Z,14.70
2018-04-11T01:05:47.148Z,14.73
2018-04-11T01:06:47.130Z,14.73
2018-04-11T01:07:47.113Z,14.66
2018-04-11T01:08:47.096Z,14.74
2018-04-11T01:09:47.079Z,14.70
2018-04-11T01:10:47.061Z,14.70
2018-04-11T01:11:47.040Z,14.67
2018-04-11T01:12:47.023Z,14.68
2018-04-11T01:13:47.005Z,14.67
2018-04-11T01:14:46.988Z,14.70
2018-04-11T01:15:46.979Z,14.77
2018-04-11T01:16:46.953Z,14.78
2018-04-11T01:17:46.935Z,14.70
2018-04-11T01:18:46.924Z,14.71
2018-04-11T01:19:46.901Z,14.74
2018-04-11T01:20:46.883Z,14.78
2018-04-11T01:21:46.867Z,14.79
2018-04-11T01:22:46.850Z,14.86
2018-04-11T01:23:46.831Z,14.77
2018-04-11T01:24:46.811Z,14.81
2018-04-11T01:25:46.795Z,14.74
2018-04-11T01:26:46.777Z,14.78
2018-04-11T01:27:46.758Z,14.81
2018-04-11T01:28:46.745Z,14.82
2018-04-11T01:29:46.724Z,14.79
2018-04-11T01:30:46.708Z,14.74
2018-04-11T01:31:46.694Z,14.77
2018-04-11T01:32:46.670Z,14.78
2018-04-11T01:33:46.653Z,14.79
2018-04-11T01:34:46.634Z,14.79
2018-04-11T01:35:46.625Z,14.74
2018-04-11T01:36:46.599Z,14.73
2018-04-11T01:37:46.581Z,14.81
2018-04-11T01:38:46.563Z,14.68
2018-04-11T01:39:46.547Z,14.71
2018-04-11T01:40:46.530Z,14.79
2018-04-11T01:41:46.510Z,14.70
2018-04-11T01:42:46.492Z,14.70
2018-04-11T01:43:46.476Z,14.77
2018-04-11T01:44:46.458Z,14.70
2018-04-11T01:45:46.440Z,14.78
2018-04-11T01:46:46.421Z,14.77
2018-04-11T01:47:46.406Z,14.68
2018-04-11T01:48:46.385Z,14.67
2018-04-11T01:49:46.369Z,14.68
2018-04-11T01:50:46.356Z,14.71
2018-04-11T01:51:46.335Z,14.68
2018-04-11T01:52:46.316Z,14.59
2018-04-11T01:53:46.299Z,14.62
2018-04-11T01:54:46.280Z,14.67
2018-04-11T01:55:46.264Z,14.63
2018-04-11T01:56:46.245Z,14.58
2018-04-11T01:57:46.234Z,14.61
2018-04-11T01:58:46.211Z,14.55
2018-04-11T01:59:46.194Z,14.58
2018-04-11T02:00:46.173Z,14.61
2018-04-11T02:01:46.157Z,14.56
2018-04-11T02:02:46.142Z,14.52
2018-04-11T02:03:46.122Z,14.58
2018-04-11T02:04:46.104Z,14.62
2018-04-11T02:05:46.088Z,14.61
2018-04-11T02:06:46.077Z,14.53
2018-04-11T02:07:46.048Z,14.58
2018-04-11T02:08:46.034Z,14.55
2018-04-11T02:09:46.018Z,14.41
2018-04-11T02:10:45.995Z,14.53
2018-04-11T02:11:45.991Z,14.48
2018-04-11T02:12:45.961Z,14.49
2018-04-11T02:13:45.943Z,14.41
2018-04-11T02:14:45.923Z,14.48
2018-04-11T02:15:45.906Z,14.43
2018-04-11T02:16:45.889Z,14.31
2018-04-11T02:17:45.870Z,14.40
2018-04-11T02:18:45.852Z,14.44
2018-04-11T02:19:45.835Z,14.44
2018-04-11T02:20:45.816Z,14.30
2018-04-11T02:21:45.805Z,14.26
2018-04-11T02:22:45.781Z,14.31
2018-04-11T02:23:45.763Z,14.34
2018-04-11T02:24:45.746Z,14.25
2018-04-11T02:25:45.728Z,14.23
2018-04-11T02:26:45.707Z,14.30
2018-04-11T02:27:45.691Z,14.22
2018-04-11T02:28:45.672Z,14.22
2018-04-11T02:29:45.656Z,14.30
2018-04-11T02:30:45.638Z,14.30
2018-04-11T02:31:45.619Z,14.22
2018-04-11T02:32:45.601Z,14.26
2018-04-11T02:33:45.582Z,14.13
2018-04-11T02:34:45.569Z,14.11
2018-04-11T02:35:45.547Z,14.18
2018-04-11T02:36:45.530Z,14.07
2018-04-11T02:37:45.512Z,14.07
2018-04-11T02:38:45.494Z,14.13
2018-04-11T02:39:45.473Z,14.08
2018-04-11T02:40:45.469Z,14.12
2018-04-11T02:41:45.440Z,14.11
2018-04-11T02:42:45.422Z,14.08
2018-04-11T02:43:45.414Z,14.05
2018-04-11T02:44:45.389Z,14.03
2018-04-11T02:45:45.368Z,14.04
2018-04-11T02:46:45.350Z,14.05
2018-04-11T02:47:45.329Z,13.94
2018-04-11T02:48:45.310Z,13.98
2018-04-11T02:49:45.294Z,13.98
2018-04-11T02:50:45.273Z,13.97
2018-04-11T02:51:45.256Z,13.98
2018-04-11T02:52:45.237Z,13.98
2018-04-11T02:53:45.219Z,14.03
2018-04-11T02:54:45.200Z,13.87
2018-04-11T02:55:45.181Z,13.91
2018-04-11T02:56:45.165Z,13.94
2018-04-11T02:57:45.146Z,13.95
2018-04-11T02:58:45.129Z,13.91
2018-04-11T02:59:45.109Z,13.87
2018-04-11T03:00:45.091Z,13.85
2018-04-11T03:01:45.075Z,13.80
2018-04-11T03:02:45.054Z,13.75
2018-04-11T03:03:45.036Z,13.80
2018-04-11T03:04:45.019Z,13.79
2018-04-11T03:05:45.001Z,13.79
2018-04-11T03:06:44.982Z,13.78
2018-04-11T03:07:44.962Z,13.67
2018-04-11T03:08:44.946Z,13.78
2018-04-11T03:09:44.928Z,13.73
2018-04-11T03:10:44.906Z,13.65
2018-04-11T03:11:44.890Z,13.68
2018-04-11T03:12:44.875Z,13.68
2018-04-11T03:13:44.855Z,13.68
2018-04-11T03:14:44.835Z,13.70
2018-04-11T03:15:44.817Z,13.68
2018-04-11T03:16:44.797Z,13.60
2018-04-11T03:17:44.780Z,13.65
2018-04-11T03:18:44.760Z,13.61
2018-04-11T03:19:44.742Z,13.57
2018-04-11T03:20:44.725Z,13.58
2018-04-11T03:21:44.708Z,13.57
2018-04-11T03:22:44.688Z,13.54
2018-04-11T03:23:44.667Z,13.61
2018-04-11T03:24:44.649Z,13.58
2018-04-11T03:25:44.631Z,13.58
2018-04-11T03:26:44.611Z,13.57
2018-04-11T03:27:44.596Z,13.57
2018-04-11T03:28:44.597Z,13.55
2018-04-11T03:29:44.559Z,13.52
2018-04-11T03:30:44.536Z,13.49
2018-04-11T03:31:44.520Z,13.54
2018-04-11T03:32:44.499Z,13.42
2018-04-11T03:33:44.484Z,13.45
2018-04-11T03:34:44.463Z,13.46
2018-04-11T03:35:44.443Z,13.46
2018-04-11T03:36:44.425Z,13.39
2018-04-11T03:37:44.409Z,13.36
2018-04-11T03:38:44.387Z,13.33
2018-04-11T03:39:44.370Z,13.37
2018-04-11T03:40:44.357Z,13.30
2018-04-11T03:41:44.331Z,13.30
2018-04-11T03:42:44.315Z,13.28
2018-04-11T03:43:44.296Z,13.30
2018-04-11T03:44:44.276Z,13.26
2018-04-11T03:45:44.258Z,13.30
2018-04-11T03:46:44.239Z,13.27
2018-04-11T03:47:44.221Z,13.20
2018-04-11T03:48:44.204Z,13.17
2018-04-11T03:49:44.188Z,13.11
2018-04-11T03:50:45.115Z,13.03
2018-04-11T03:51:44.162Z,13.08
2018-04-11T03:52:44.127Z,12.99
2018-04-11T03:53:44.107Z,13.06
2018-04-11T03:54:44.089Z,12.99
2018-04-11T03:55:44.070Z,12.90
2018-04-11T03:56:44.052Z,12.87
2018-04-11T03:57:44.033Z,12.88
2018-04-11T03:58:44.012Z,12.87
2018-04-11T03:59:43.993Z,12.84
2018-04-11T04:00:43.975Z,12.80
2018-04-11T04:01:44.008Z,12.75
2018-04-11T04:02:43.937Z,12.72
2018-04-11T04:03:43.917Z,12.76
2018-04-11T04:04:43.900Z,12.68
2018-04-11T04:05:43.884Z,12.66
2018-04-11T04:06:43.861Z,12.65
2018-04-11T04:07:43.859Z,12.58
2018-04-11T04:08:43.824Z,12.61
2018-04-11T04:09:43.805Z,12.61
2018-04-11T04:10:43.785Z,12.61
2018-04-11T04:11:43.765Z,12.55
2018-04-11T04:12:43.748Z,12.54
2018-04-11T04:13:43.790Z,12.57
2018-04-11T04:14:43.709Z,12.63
2018-04-11T04:15:43.696Z,12.61
2018-04-11T04:16:43.717Z,12.48
2018-04-11T04:17:43.653Z,12.61
2018-04-11T04:18:43.633Z,12.58
2018-04-11T04:19:43.661Z,12.50
2018-04-11T04:20:43.600Z,12.57
2018-04-11T04:21:43.584Z,12.62
2018-04-11T04:22:43.582Z,12.45
2018-04-11T04:23:43.538Z,12.45
2018-04-11T04:24:43.537Z,12.47
2018-04-11T04:25:43.498Z,12.40
2018-04-11T04:26:43.480Z,12.39
2018-04-11T04:27:43.467Z,12.43
2018-04-11T04:28:43.441Z,12.36
2018-04-11T04:29:43.422Z,12.40
2018-04-11T04:30:43.404Z,12.45
2018-04-11T04:31:43.385Z,12.43
2018-04-11T04:32:43.366Z,12.43
2018-04-11T04:33:43.345Z,12.44
2018-04-11T04:34:43.324Z,12.40
2018-04-11T04:35:43.308Z,12.45
2018-04-11T04:36:43.286Z,12.44
2018-04-11T04:37:43.265Z,12.40
2018-04-11T04:38:43.249Z,12.43
2018-04-11T04:39:43.229Z,12.40
2018-04-11T04:40:43.209Z,12.40
2018-04-11T04:41:43.190Z,12.39
2018-04-11T04:42:43.181Z,12.45
2018-04-11T04:43:43.154Z,12.36
2018-04-11T04:44:43.133Z,12.40
2018-04-11T04:45:43.126Z,12.43
2018-04-11T04:46:43.094Z,12.33
2018-04-11T04:47:43.073Z,12.30
2018-04-11T04:48:43.056Z,12.33
2018-04-11T04:49:43.036Z,12.30
2018-04-11T04:50:43.016Z,12.23
2018-04-11T04:51:42.998Z,12.21
2018-04-11T04:52:42.976Z,12.20
2018-04-11T04:55:26.059Z,12.23
2018-04-11T04:56:25.891Z,12.23
2018-04-11T04:58:19.360Z,12.15
2018-04-11T04:59:19.208Z,12.18
2018-04-11T05:01:12.550Z,12.28
2018-04-11T05:02:12.544Z,12.20
2018-04-11T05:04:05.892Z,12.12
2018-04-11T05:05:05.848Z,12.12
2018-04-11T05:07:04.711Z,12.23
2018-04-11T05:08:04.693Z,12.23
2018-04-11T05:09:58.079Z,12.20
2018-04-11T05:10:58.008Z,12.12
2018-04-11T05:12:51.349Z,12.12
2018-04-11T05:13:51.331Z,12.17
2018-04-11T05:15:44.673Z,12.15
2018-04-11T05:16:44.648Z,12.20
2018-04-11T05:18:38.046Z,12.12
2018-04-11T05:19:38.013Z,12.15
2018-04-11T05:21:31.358Z,12.08
2018-04-11T05:22:31.292Z,12.11
2018-04-11T05:24:24.638Z,12.05
2018-04-11T05:25:25.202Z,12.03
2018-04-11T05:27:18.552Z,11.99
2018-04-11T05:28:18.523Z,12.03
2018-04-11T05:30:11.322Z,11.99
2018-04-11T05:31:11.254Z,11.96
2018-04-11T05:33:05.594Z,11.99
2018-04-11T05:34:05.573Z,12.02
2018-04-11T05:35:58.917Z,11.96
2018-04-11T05:36:58.897Z,12.03
2018-04-11T05:38:56.706Z,12.07
2018-04-11T05:39:56.686Z,12.11
2018-04-11T05:41:50.021Z,12.11
2018-04-11T05:42:49.998Z,12.12
2018-04-11T05:44:43.490Z,12.14
2018-04-11T05:45:43.915Z,12.15
2018-04-11T05:47:36.662Z,12.12
2018-04-11T05:48:36.638Z,12.23
2018-04-11T05:50:30.877Z,12.23
2018-04-11T05:51:30.807Z,12.17
2018-04-11T05:53:24.195Z,12.21
2018-04-11T05:54:24.131Z,12.21
2018-04-11T05:56:17.474Z,12.18
2018-04-11T05:57:17.449Z,12.25
2018-04-11T05:59:10.794Z,12.21
2018-04-11T06:00:11.402Z,12.26
2018-04-11T06:02:04.111Z,12.32
2018-04-11T06:03:04.100Z,12.33
2018-04-11T06:04:57.478Z,12.33
2018-04-11T06:05:57.495Z,12.25
2018-04-11T06:07:50.755Z,12.37
2018-04-11T06:08:50.730Z,12.39
2018-04-11T06:10:44.117Z,12.37
2018-04-11T06:11:44.108Z,12.36
2018-04-11T06:13:37.398Z,12.54
2018-04-11T06:14:37.442Z,12.44
2018-04-11T06:16:30.760Z,12.54
2018-04-11T06:17:30.690Z,12.50
2018-04-11T06:19:24.036Z,12.53
2018-04-11T06:20:24.011Z,12.53
2018-04-11T06:22:17.399Z,12.61
2018-04-11T06:23:17.330Z,12.69
2018-04-11T06:25:10.721Z,12.69
2018-04-11T06:26:10.655Z,12.75
2018-04-11T06:28:04.047Z,12.80
2018-04-11T06:29:03.972Z,12.91
2018-04-11T06:30:57.360Z,13.05
2018-04-11T06:31:57.291Z,12.94
2018-04-11T06:33:50.636Z,13.02
2018-04-11T06:34:50.613Z,13.06
2018-04-11T06:36:44.008Z,13.23
2018-04-11T06:37:43.936Z,13.19
2018-04-11T06:39:41.680Z,13.19
2018-04-11T06:40:41.659Z,13.20
2018-04-11T06:42:35.047Z,13.30
2018-04-11T06:43:34.982Z,13.21
2018-04-11T06:45:28.378Z,13.28
2018-04-11T06:46:28.311Z,13.36
2018-04-11T06:48:21.655Z,13.33
2018-04-11T06:49:21.631Z,13.39
2018-04-11T06:51:15.023Z,13.55
2018-04-11T06:52:14.953Z,13.54
2018-04-11T06:54:08.296Z,13.67
2018-04-11T06:55:08.277Z,13.64
2018-04-11T06:57:01.666Z,13.61
2018-04-11T06:58:01.601Z,13.73
2018-04-11T06:59:55.940Z,13.68
2018-04-11T07:00:55.916Z,13.71
2018-04-11T07:01:55.897Z,13.76
2018-04-11T07:02:55.879Z,13.76
2018-04-11T07:03:55.862Z,13.79
2018-04-11T07:04:55.843Z,13.85
2018-04-11T07:05:55.822Z,13.89
2018-04-11T07:06:55.806Z,13.86
2018-04-11T07:07:55.787Z,13.95
2018-04-11T07:08:55.768Z,13.93
2018-04-11T07:09:55.748Z,14.00
2018-04-11T07:10:55.730Z,14.08
2018-04-11T07:11:55.711Z,14.12
2018-04-11T07:12:55.699Z,14.13
2018-04-11T07:13:55.680Z,14.18
2018-04-11T07:14:55.656Z,14.18
2018-04-11T07:15:55.638Z,14.26
2018-04-11T07:16:55.618Z,14.26
2018-04-11T07:17:55.641Z,14.33
2018-04-11T07:18:55.580Z,14.36
2018-04-11T07:19:55.589Z,14.26
2018-04-11T07:20:55.546Z,14.37
2018-04-11T07:21:55.532Z,14.44
2018-04-11T07:22:55.510Z,14.44
2018-04-11T07:23:55.492Z,14.38
2018-04-11T07:24:55.472Z,14.53
2018-04-11T07:25:55.462Z,14.52
2018-04-11T07:26:55.447Z,14.58
2018-04-11T07:27:55.427Z,14.52
2018-04-11T07:28:55.400Z,14.70
2018-04-11T07:29:55.424Z,14.67
2018-04-11T07:30:55.368Z,14.68
2018-04-11T07:31:55.409Z,14.70
2018-04-11T07:32:55.332Z,14.70
2018-04-11T07:33:55.314Z,14.74
2018-04-11T07:34:55.298Z,14.82
2018-04-11T07:35:55.281Z,14.89
2018-04-11T07:36:55.272Z,14.93
2018-04-11T07:37:55.258Z,14.93
2018-04-11T07:38:55.218Z,14.96
2018-04-11T07:39:55.211Z,14.94
2018-04-11T07:40:55.185Z,15.11
2018-04-11T07:41:55.220Z,15.02
2018-04-11T07:42:55.197Z,15.11
2018-04-11T07:43:55.181Z,15.14
2018-04-11T07:44:55.160Z,15.15
2018-04-11T07:45:56.063Z,15.14
2018-04-11T07:46:55.108Z,15.19
2018-04-11T07:47:55.115Z,15.23
2018-04-11T07:48:55.043Z,15.33
2018-04-11T07:49:55.023Z,15.32
2018-04-11T07:50:55.004Z,15.37
2018-04-11T07:51:54.984Z,15.39
2018-04-11T07:52:54.979Z,15.52
2018-04-11T07:53:54.953Z,15.43
2018-04-11T07:54:54.935Z,15.50
2018-04-11T07:55:54.918Z,15.54
2018-04-11T07:56:54.897Z,15.50
2018-04-11T07:57:54.879Z,15.60
2018-04-11T07:58:54.885Z,15.55
2018-04-11T07:59:54.867Z,15.50
2018-04-11T08:00:54.827Z,15.52
2018-04-11T08:01:54.808Z,15.60
2018-04-11T08:02:54.798Z,15.62
2018-04-11T08:03:54.773Z,15.70
2018-04-11T08:04:54.758Z,15.69
2018-04-11T08:05:54.749Z,15.73
2018-04-11T08:06:54.721Z,15.69
2018-04-11T08:07:54.704Z,15.72
2018-04-11T08:08:54.757Z,15.76
2018-04-11T08:09:54.692Z,15.78
2018-04-11T08:10:54.651Z,15.84
2018-04-11T08:11:54.643Z,15.90
2018-04-11T08:12:54.668Z,15.88
2018-04-11T08:13:54.617Z,15.91
2018-04-11T08:14:54.614Z,15.94
2018-04-11T08:15:54.573Z,15.99
2018-04-11T08:16:54.547Z,16.03
2018-04-11T08:17:54.528Z,16.10
2018-04-11T08:18:54.512Z,16.10
2018-04-11T08:19:54.496Z,16.16
2018-04-11T08:20:54.477Z,16.17
2018-04-11T08:21:54.458Z,16.21
2018-04-11T08:22:54.442Z,16.17
2018-04-11T08:23:54.426Z,16.31
2018-04-11T08:24:54.409Z,16.28
2018-04-11T08:25:54.389Z,16.32
2018-04-11T08:26:54.372Z,16.31
2018-04-11T08:27:54.360Z,16.32
2018-04-11T08:28:54.338Z,16.36
2018-04-11T08:29:54.328Z,16.44
2018-04-11T08:30:54.308Z,16.40
2018-04-11T08:31:54.297Z,16.46
2018-04-11T08:32:54.308Z,16.49
2018-04-11T08:33:54.278Z,16.55
2018-04-11T08:34:54.302Z,16.50
2018-04-11T08:35:54.245Z,16.57
2018-04-11T08:36:54.227Z,16.62
2018-04-11T08:37:54.212Z,16.65
2018-04-11T08:38:54.181Z,16.62
2018-04-11T08:39:54.151Z,16.74
2018-04-11T08:40:54.135Z,16.79
2018-04-11T08:41:54.120Z,16.76
2018-04-11T08:42:54.101Z,16.92
2018-04-11T08:43:54.083Z,16.89
2018-04-11T08:44:54.067Z,16.89
2018-04-11T08:45:54.049Z,16.89
2018-04-11T08:46:54.059Z,16.97
2018-04-11T08:47:54.018Z,17.04
2018-04-11T08:48:54.001Z,17.05
2018-04-11T08:49:53.981Z,17.10
2018-04-11T08:50:53.967Z,17.17
2018-04-11T08:51:53.951Z,17.22
2018-04-11T08:52:53.938Z,17.23
2018-04-11T08:53:53.916Z,17.16
2018-04-11T08:54:53.900Z,17.20
2018-04-11T08:55:53.888Z,17.32
2018-04-11T08:56:53.867Z,17.31
2018-04-11T08:57:53.849Z,17.37
2018-04-11T08:58:53.833Z,17.39
2018-04-11T08:59:53.816Z,17.47
2018-04-11T09:00:54.075Z,17.60
2018-04-11T09:01:53.784Z,17.59
2018-04-11T09:02:53.772Z,17.72
2018-04-11T09:03:53.752Z,17.72
2018-04-11T09:04:53.738Z,17.69
2018-04-11T09:05:53.719Z,17.76
2018-04-11T09:06:53.703Z,17.76
2018-04-11T09:07:53.686Z,17.80
2018-04-11T09:08:53.670Z,17.82
2018-04-11T09:09:53.653Z,17.87
2018-04-11T09:10:53.638Z,18.00
2018-04-11T09:11:53.620Z,18.02
2018-04-11T09:12:53.606Z,18.06
2018-04-11T09:13:53.589Z,18.09
2018-04-11T09:14:53.582Z,18.09
2018-04-11T09:15:53.561Z,18.08
2018-04-11T09:16:53.542Z,18.18
2018-04-11T09:17:53.524Z,18.15
2018-04-11T09:18:53.510Z,18.24
2018-04-11T09:19:53.492Z,18.30
2018-04-11T09:20:53.589Z,18.36
2018-04-11T09:21:53.467Z,18.34
2018-04-11T09:22:53.467Z,18.39
2018-04-11T09:23:53.432Z,18.39
2018-04-11T09:24:53.412Z,18.45
2018-04-11T09:25:53.395Z,18.46
2018-04-11T09:26:53.381Z,18.53
2018-04-11T09:27:53.367Z,18.60
2018-04-11T09:28:53.350Z,18.57
2018-04-11T09:29:53.343Z,18.68
2018-04-11T09:30:53.317Z,18.55
2018-04-11T09:31:53.371Z,18.71
2018-04-11T09:32:53.287Z,18.66
2018-04-11T09:33:53.270Z,18.67
2018-04-11T09:34:53.257Z,18.73
2018-04-11T09:35:53.271Z,18.73
2018-04-11T09:36:53.224Z,18.85
2018-04-11T09:37:53.208Z,18.85
2018-04-11T09:38:53.209Z,18.85
2018-04-11T09:39:53.184Z,18.88
2018-04-11T09:40:53.167Z,18.92
2018-04-11T09:41:53.207Z,18.89
2018-04-11T09:42:53.131Z,18.98
2018-04-11T09:43:53.116Z,19.04
2018-04-11T09:44:53.100Z,19.09
2018-04-11T09:45:53.090Z,19.09
2018-04-11T09:46:53.070Z,19.26
2018-04-11T09:47:53.055Z,19.30
2018-04-11T09:48:53.040Z,19.27
2018-04-11T09:49:53.023Z,19.37
2018-04-11T09:50:53.007Z,19.48
2018-04-11T09:51:52.998Z,19.56
2018-04-11T09:52:52.978Z,19.41
2018-04-11T09:53:52.963Z,19.49
2018-04-11T09:54:52.952Z,19.63
2018-04-11T09:55:52.932Z,19.77
2018-04-11T09:56:52.916Z,19.66
2018-04-11T09:57:52.902Z,19.82
2018-04-11T09:58:52.886Z,19.87
2018-04-11T09:59:52.872Z,19.94
2018-04-11T10:00:52.860Z,20.02
2018-04-11T10:01:52.843Z,20.04
2018-04-11T10:02:52.828Z,20.03
2018-04-11T10:03:52.821Z,20.24
2018-04-11T10:04:52.797Z,20.21
2018-04-11T10:05:52.783Z,20.24
2018-04-11T10:06:52.819Z,20.36
2018-04-11T10:07:52.753Z,20.53
2018-04-11T10:08:52.740Z,20.75
2018-04-11T10:09:52.727Z,20.80
2018-04-11T10:10:52.711Z,21.11
2018-04-11T10:11:52.698Z,21.26
2018-04-11T10:12:52.682Z,21.45
2018-04-11T10:13:52.670Z,21.59
2018-04-11T10:14:52.654Z,21.80
2018-04-11T10:15:52.639Z,21.91
2018-04-11T10:16:52.626Z,21.91
2018-04-11T10:17:52.617Z,22.01
2018-04-11T10:18:52.601Z,22.14
2018-04-11T10:19:52.586Z,22.21
2018-04-11T10:20:52.579Z,22.30
2018-04-11T10:21:52.561Z,22.51
2018-04-11T10:22:52.547Z,22.30
2018-04-11T10:23:52.535Z,22.25
2018-04-11T10:24:52.574Z,22.43
2018-04-11T10:25:52.514Z,22.22
2018-04-11T10:26:52.499Z,22.07
2018-04-11T10:27:52.493Z,22.37
2018-04-11T10:28:52.478Z,22.15
2018-04-11T10:29:52.473Z,22.28
2018-04-11T10:30:52.455Z,22.77
2018-04-11T10:31:52.454Z,22.52
2018-04-11T10:32:52.436Z,22.37
2018-04-11T10:33:52.424Z,22.88
2018-04-11T10:34:52.412Z,23.06
2018-04-11T10:35:52.402Z,22.76
2018-04-11T10:36:52.391Z,22.91
2018-04-11T10:37:52.377Z,24.29
2018-04-11T10:38:52.366Z,23.92
2018-04-11T10:39:52.356Z,24.38
2018-04-11T10:40:52.346Z,24.10
2018-04-11T10:41:52.337Z,23.71
2018-04-11T10:42:52.324Z,23.42
2018-04-11T10:43:52.346Z,23.18
2018-04-11T10:44:52.306Z,22.93
2018-04-11T10:45:52.301Z,22.73
2018-04-11T10:46:52.288Z,22.43
2018-04-11T10:47:52.273Z,22.36
2018-04-11T10:48:52.271Z,22.14
2018-04-11T10:49:52.249Z,22.03
2018-04-11T10:50:52.240Z,21.94
2018-04-11T10:51:52.249Z,21.80
2018-04-11T10:52:52.218Z,21.66
2018-04-11T10:53:52.203Z,21.58
2018-04-11T10:54:52.193Z,21.45
2018-04-11T10:55:52.181Z,21.33
2018-04-11T10:56:52.175Z,21.30
2018-04-11T10:57:52.162Z,21.19
2018-04-11T10:58:52.149Z,21.13
2018-04-11T10:59:52.135Z,20.95
2018-04-11T11:00:52.170Z,21.00
2018-04-11T11:01:52.110Z,20.93
2018-04-11T11:02:52.097Z,20.96
2018-04-11T11:03:52.088Z,21.05
2018-04-11T11:04:52.069Z,20.96
2018-04-11T11:05:52.069Z,20.80
2018-04-11T11:06:52.048Z,20.73
2018-04-11T11:07:52.040Z,20.75
2018-04-11T11:08:52.020Z,20.74
2018-04-11T11:09:52.007Z,20.75
2018-04-11T11:10:51.992Z,20.82
2018-04-11T11:11:51.979Z,20.75
2018-04-11T11:12:51.973Z,21.30
2018-04-11T11:13:51.953Z,22.40
2018-04-11T11:14:51.939Z,22.34
2018-04-11T11:15:51.928Z,22.33
2018-04-11T11:16:51.915Z,22.03
2018-04-11T11:17:51.903Z,22.04
2018-04-11T11:18:51.888Z,22.00
2018-04-11T11:19:51.875Z,22.12
2018-04-11T11:20:51.861Z,22.56
2018-04-11T11:21:51.848Z,22.47
2018-04-11T11:22:51.891Z,22.38
2018-04-11T11:23:51.830Z,22.63
2018-04-11T11:24:51.813Z,22.93
2018-04-11T11:25:51.795Z,23.67
2018-04-11T11:26:51.783Z,23.66
2018-04-11T11:27:51.773Z,24.24
2018-04-11T11:28:51.781Z,24.50
2018-04-11T11:29:51.755Z,25.01
2018-04-11T11:30:51.735Z,24.62
2018-04-11T11:31:51.723Z,25.54
2018-04-11T11:32:51.712Z,25.78
2018-04-11T11:33:51.700Z,26.33
2018-04-11T11:34:51.689Z,25.71
2018-04-11T11:35:51.678Z,26.34
2018-04-11T11:36:51.669Z,26.86
2018-04-11T11:37:51.655Z,26.18
2018-04-11T11:38:51.646Z,25.41
2018-04-11T11:39:51.637Z,25.01
2018-04-11T11:40:51.627Z,25.01
2018-04-11T11:41:51.617Z,25.83
2018-04-11T11:42:51.608Z,25.78
2018-04-11T11:43:51.597Z,25.98
2018-04-11T11:44:51.592Z,25.41
2018-04-11T11:45:51.610Z,25.03
2018-04-11T11:46:51.568Z,24.59
2018-04-11T11:47:51.559Z,24.34
2018-04-11T11:48:51.550Z,24.13
2018-04-11T11:49:51.542Z,23.92
2018-04-11T11:50:51.532Z,23.81
2018-04-11T11:51:51.521Z,23.52
2018-04-11T11:52:51.516Z,23.40
2018-04-11T11:53:51.498Z,23.13
2018-04-11T11:54:51.488Z,23.11
2018-04-11T11:55:51.481Z,22.93
2018-04-11T11:56:51.466Z,22.70
2018-04-11T11:57:51.459Z,22.52
2018-04-11T11:58:51.444Z,22.51
2018-04-11T11:59:51.433Z,22.30
2018-04-11T12:00:51.419Z,22.28
2018-04-11T12:01:51.419Z,22.12
2018-04-11T12:02:51.400Z,21.94
2018-04-11T12:03:51.384Z,21.84
2018-04-11T12:04:51.382Z,21.66
2018-04-11T12:05:51.366Z,21.56
2018-04-11T12:06:51.350Z,21.40
2018-04-11T12:07:51.338Z,21.40
2018-04-11T12:08:51.328Z,21.32
2018-04-11T12:09:51.311Z,21.32
2018-04-11T12:10:51.298Z,21.33
2018-04-11T12:11:51.321Z,21.35
2018-04-11T12:12:51.273Z,21.37
2018-04-11T12:13:51.266Z,21.70
2018-04-11T12:14:51.254Z,21.66
2018-04-11T12:15:51.233Z,21.60
2018-04-11T12:16:51.225Z,21.60
2018-04-11T12:17:51.221Z,21.56
2018-04-11T12:18:51.204Z,21.40
2018-04-11T12:19:51.182Z,21.40
2018-04-11T12:20:51.230Z,21.37
2018-04-11T12:21:51.219Z,21.43
2018-04-11T12:22:51.197Z,21.38
2018-04-11T12:23:51.128Z,21.26
2018-04-11T12:24:51.123Z,21.26
2018-04-11T12:25:51.102Z,21.15
2018-04-11T12:26:51.089Z,21.11
2018-04-11T12:27:51.076Z,20.93
2018-04-11T12:28:51.112Z,20.89
2018-04-11T12:29:51.049Z,20.64
2018-04-11T12:30:51.036Z,20.64
2018-04-11T12:31:51.023Z,20.58
2018-04-11T12:32:51.011Z,20.46
2018-04-11T12:33:50.993Z,20.39
2018-04-11T12:34:51.014Z,20.24
2018-04-11T12:35:52.670Z,20.08
2018-04-11T12:36:50.954Z,20.11
2018-04-11T12:37:50.941Z,20.07
2018-04-11T12:38:51.632Z,19.92
2018-04-11T12:39:50.964Z,19.77
2018-04-11T12:40:50.898Z,19.67
2018-04-11T12:41:50.882Z,19.70
2018-04-11T12:42:50.869Z,19.60
2018-04-11T12:43:51.681Z,19.56
2018-04-11T12:44:51.628Z,19.53
2018-04-11T12:45:50.825Z,19.55
2018-04-11T12:46:50.860Z,19.70
2018-04-11T12:47:50.796Z,19.74
2018-04-11T12:48:50.783Z,19.85
2018-04-11T12:49:50.782Z,19.90
2018-04-11T12:50:50.754Z,20.00
2018-04-11T12:51:50.745Z,20.40
2018-04-11T12:52:50.725Z,20.74
2018-04-11T12:53:50.711Z,21.96
2018-04-11T12:54:50.695Z,22.01
2018-04-11T12:55:50.683Z,22.43
2018-04-11T12:56:50.667Z,22.51
2018-04-11T12:57:50.652Z,22.46
2018-04-11T12:58:50.662Z,22.80
2018-04-11T12:59:50.627Z,24.58
2018-04-11T13:00:50.615Z,25.40
2018-04-11T13:01:50.653Z,26.41
2018-04-11T13:02:51.198Z,25.92
2018-04-11T13:03:50.574Z,26.07
2018-04-11T13:04:50.588Z,26.56
2018-04-11T13:05:50.548Z,26.55
2018-04-11T13:06:50.537Z,26.33
2018-04-11T13:07:50.525Z,25.77
2018-04-11T13:08:50.516Z,25.49
2018-04-11T13:09:51.136Z,25.14
2018-04-11T13:10:50.544Z,24.88
2018-04-11T13:11:50.481Z,24.75
2018-04-11T13:12:50.498Z,25.06
2018-04-11T13:13:50.497Z,24.71
2018-04-11T13:14:50.497Z,24.48
2018-04-11T13:15:50.439Z,24.28
2018-04-11T13:16:50.434Z,24.00
2018-04-11T13:17:50.772Z,23.81
2018-04-11T13:18:50.898Z,24.25
2018-04-11T13:19:50.453Z,25.16
2018-04-11T13:20:50.421Z,25.73
2018-04-11T13:21:50.373Z,25.58
2018-04-11T13:22:50.364Z,25.85
2018-04-11T13:23:50.394Z,25.98
2018-04-11T13:24:50.805Z,25.73
2018-04-11T13:25:51.174Z,25.44
2018-04-11T13:26:50.324Z,24.85
2018-04-11T13:27:50.329Z,24.74
2018-04-11T13:28:50.312Z,24.62
2018-04-11T13:29:50.289Z,24.62
2018-04-11T13:30:50.278Z,24.56
2018-04-11T13:31:50.288Z,24.55
2018-04-11T13:32:50.270Z,24.55